createdAt,value
2018-06-18T09:13:51.796Z,1012.64
2018-06-18T09:14:51.752Z,1012.70
2018-06-18T09:15:51.750Z,1012.65
2018-06-18T09:16:51.724Z,1012.65
2018-06-18T09:17:51.710Z,1012.66
2018-06-18T09:18:51.698Z,1012.62
2018-06-18T09:19:51.682Z,1012.64
2018-06-18T09:20:51.714Z,1012.63
2018-06-18T09:21:51.654Z,1012.66
2018-06-18T09:22:51.643Z,1012.67
2018-06-18T09:23:51.629Z,1012.65
2018-06-18T09:24:51.617Z,1012.65
2018-06-18T09:25:51.613Z,1012.71
2018-06-18T09:26:51.591Z,1012.69
2018-06-18T09:27:51.579Z,1012.70
2018-06-18T09:28:51.568Z,1012.71
2018-06-18T09:29:51.558Z,1012.68
2018-06-18T09:30:51.557Z,1012.66
2018-06-18T09:31:51.531Z,1012.66
2018-06-18T09:32:51.517Z,1012.67
2018-06-18T09:33:51.506Z,1012.62
2018-06-18T09:34:51.495Z,1012.63
2018-06-18T09:35:51.502Z,1012.60
2018-06-18T09:36:51.471Z,1012.61
2018-06-18T09:37:51.460Z,1012.64
2018-06-18T09:38:51.453Z,1012.65
2018-06-18T09:39:51.442Z,1012.60
2018-06-18T09:40:51.428Z,1012.62
2018-06-18T09:41:51.424Z,1012.63
2018-06-18T09:42:51.403Z,1012.66
2018-06-18T09:43:51.391Z,1012.64
2018-06-18T09:44:51.380Z,1012.60
2018-06-18T09:45:51.367Z,1012.62
2018-06-18T09:46:51.368Z,1012.61
2018-06-18T09:47:51.345Z,1012.61
2018-06-18T09:48:51.335Z,1012.59
2018-06-18T09:49:51.320Z,1012.60
2018-06-18T09:50:51.310Z,1012.61
2018-06-18T09:51:51.317Z,1012.56
2018-06-18T09:52:51.290Z,1012.56
2018-06-18T09:53:51.276Z,1012.56
2018-06-18T09:54:51.272Z,1012.60
2018-06-18T09:55:51.260Z,1012.59
2018-06-18T09:56:51.256Z,1012.58
2018-06-18T09:57:51.236Z,1012.59
2018-06-18T09:58:51.222Z,1012.57
2018-06-18T09:59:51.204Z,1012.51
2018-06-18T10:00:51.204Z,1012.54
2018-06-18T10:01:51.202Z,1012.53
2018-06-18T10:02:51.178Z,1012.50
2018-06-18T10:03:51.171Z,1012.55
2018-06-18T10:04:51.153Z,1012.50
2018-06-18T10:05:51.138Z,1012.52
2018-06-18T10:06:51.143Z,1012.59
2018-06-18T10:07:51.119Z,1012.54
2018-06-18T10:08:51.273Z,1012.49
2018-06-18T10:09:51.094Z,1012.48
2018-06-18T10:10:51.080Z,1012.53
2018-06-18T10:11:51.081Z,1012.53
2018-06-18T10:12:51.062Z,1012.57
2018-06-18T10:13:51.048Z,1012.56
2018-06-18T10:14:51.048Z,1012.55
2018-06-18T10:15:51.040Z,1012.59
2018-06-18T10:16:51.029Z,1012.57
2018-06-18T10:17:51.005Z,1012.59
2018-06-18T10:18:50.996Z,1012.57
2018-06-18T10:19:50.989Z,1012.57
2018-06-18T10:20:50.976Z,1012.49
2018-06-18T10:21:50.978Z,1012.56
2018-06-18T10:22:50.952Z,1012.54
2018-06-18T10:23:50.945Z,1012.56
2018-06-18T10:24:50.936Z,1012.53
2018-06-18T10:25:50.925Z,1012.53
2018-06-18T10:26:50.922Z,1012.51
2018-06-18T10:27:50.905Z,1012.52
2018-06-18T10:28:50.897Z,1012.46
2018-06-18T10:29:50.882Z,1012.46
2018-06-18T10:30:50.871Z,1012.45
2018-06-18T10:31:50.878Z,1012.48
2018-06-18T10:32:50.847Z,1012.49
2018-06-18T10:33:50.836Z,1012.47
2018-06-18T10:34:50.827Z,1012.46
2018-06-18T10:35:50.816Z,1012.48
2018-06-18T10:36:50.823Z,1012.43
2018-06-18T10:37:50.793Z,1012.43
2018-06-18T10:38:50.784Z,1012.43
2018-06-18T10:39:50.771Z,1012.41
2018-06-18T10:40:50.762Z,1012.43
2018-06-18T10:41:50.757Z,1012.42
2018-06-18T10:42:50.752Z,1012.41
2018-06-18T10:43:50.731Z,1012.38
2018-06-18T10:44:50.716Z,1012.35
2018-06-18T10:45:50.714Z,1012.40
2018-06-18T10:46:50.695Z,1012.41
2018-06-18T10:47:50.696Z,1012.38
2018-06-18T10:48:50.672Z,1012.37
2018-06-18T10:49:50.664Z,1012.36
2018-06-18T10:50:50.654Z,1012.40
2018-06-18T10:51:50.642Z,1012.38
2018-06-18T10:52:50.641Z,1012.39
2018-06-18T10:53:50.616Z,1012.41
2018-06-18T10:54:50.610Z,1012.42
2018-06-18T10:55:50.591Z,1012.43
2018-06-18T10:56:50.584Z,1012.45
2018-06-18T10:57:50.581Z,1012.45
2018-06-18T10:58:50.559Z,1012.42
2018-06-18T10:59:50.554Z,1012.44
2018-06-18T11:00:50.539Z,1012.45
2018-06-18T11:01:50.530Z,1012.46
2018-06-18T11:02:50.526Z,1012.46
2018-06-18T11:03:50.569Z,1012.44
2018-06-18T11:04:50.489Z,1012.45
2018-06-18T11:05:50.479Z,1012.46
2018-06-18T11:06:50.467Z,1012.49
2018-06-18T11:07:50.469Z,1012.51
2018-06-18T11:08:50.443Z,1012.43
2018-06-18T11:09:50.438Z,1012.45
2018-06-18T11:10:50.421Z,1012.42
2018-06-18T11:11:50.409Z,1012.52
2018-06-18T11:12:50.410Z,1012.46
2018-06-18T11:13:50.388Z,1012.45
2018-06-18T11:14:50.377Z,1012.47
2018-06-18T11:15:50.377Z,1012.47
2018-06-18T11:16:50.594Z,1012.46
2018-06-18T11:17:50.351Z,1012.47
2018-06-18T11:18:50.333Z,1012.45
2018-06-18T11:19:50.326Z,1012.51
2018-06-18T11:20:50.313Z,1012.54
2018-06-18T11:21:50.313Z,1012.50
2018-06-18T11:22:50.335Z,1012.52
2018-06-18T11:23:50.288Z,1012.53
2018-06-18T11:24:50.272Z,1012.47
2018-06-18T11:25:50.262Z,1012.46
2018-06-18T11:26:50.398Z,1012.43
2018-06-18T11:27:50.246Z,1012.46
2018-06-18T11:28:50.247Z,1012.43
2018-06-18T11:29:50.225Z,1012.44
2018-06-18T11:30:50.216Z,1012.40
2018-06-18T11:31:50.204Z,1012.45
2018-06-18T11:32:50.193Z,1012.43
2018-06-18T11:33:50.193Z,1012.42
2018-06-18T11:34:50.201Z,1012.44
2018-06-18T11:35:50.172Z,1012.41
2018-06-18T11:36:50.196Z,1012.38
2018-06-18T11:37:50.201Z,1012.41
2018-06-18T11:38:50.222Z,1012.34
2018-06-18T11:39:50.125Z,1012.35
2018-06-18T11:40:50.113Z,1012.35
2018-06-18T11:41:50.189Z,1012.36
2018-06-18T11:42:50.098Z,1012.33
2018-06-18T11:43:50.105Z,1012.30
2018-06-18T11:44:50.073Z,1012.26
2018-06-18T11:45:50.095Z,1012.23
2018-06-18T11:46:50.057Z,1012.25
2018-06-18T11:47:50.089Z,1012.23
2018-06-18T11:48:50.049Z,1012.29
2018-06-18T11:49:50.029Z,1012.30
2018-06-18T11:50:50.062Z,1012.29
2018-06-18T11:51:50.012Z,1012.27
2018-06-18T11:52:49.994Z,1012.26
2018-06-18T11:53:50.003Z,1012.30
2018-06-18T11:54:49.974Z,1012.29
2018-06-18T11:55:50.023Z,1012.25
2018-06-18T11:56:49.956Z,1012.26
2018-06-18T11:57:49.939Z,1012.22
2018-06-18T11:58:49.948Z,1012.26
2018-06-18T11:59:49.922Z,1012.27
2018-06-18T12:00:49.916Z,1012.28
2018-06-18T12:01:49.901Z,1012.23
2018-06-18T12:02:49.886Z,1012.28
2018-06-18T12:03:49.941Z,1012.25
2018-06-18T12:04:49.867Z,1012.24
2018-06-18T12:05:49.861Z,1012.22
2018-06-18T12:06:49.848Z,1012.23
2018-06-18T12:07:49.834Z,1012.23
2018-06-18T12:08:49.829Z,1012.25
2018-06-18T12:09:49.895Z,1012.26
2018-06-18T12:10:49.801Z,1012.22
2018-06-18T12:11:49.790Z,1012.21
2018-06-18T12:12:49.779Z,1012.22
2018-06-18T12:13:49.771Z,1012.22
2018-06-18T12:14:49.765Z,1012.21
2018-06-18T12:15:49.744Z,1012.20
2018-06-18T12:16:49.736Z,1012.21
2018-06-18T12:17:49.723Z,1012.21
2018-06-18T12:18:49.710Z,1012.24
2018-06-18T12:19:49.711Z,1012.25
2018-06-18T12:20:49.686Z,1012.22
2018-06-18T12:21:49.676Z,1012.22
2018-06-18T12:22:49.662Z,1012.18
2018-06-18T12:23:49.653Z,1012.16
2018-06-18T12:24:49.653Z,1012.22
2018-06-18T12:25:49.628Z,1012.20
2018-06-18T12:26:49.618Z,1012.19
2018-06-18T12:27:49.606Z,1012.20
2018-06-18T12:28:49.592Z,1012.21
2018-06-18T12:29:49.590Z,1012.20
2018-06-18T12:30:49.572Z,1012.22
2018-06-18T12:31:49.558Z,1012.20
2018-06-18T12:32:49.545Z,1012.16
2018-06-18T12:33:49.536Z,1012.17
2018-06-18T12:34:49.535Z,1012.16
2018-06-18T12:35:49.518Z,1012.19
2018-06-18T12:36:49.498Z,1012.19
2018-06-18T12:37:49.486Z,1012.21
2018-06-18T12:38:49.479Z,1012.22
2018-06-18T12:39:49.476Z,1012.21
2018-06-18T12:40:49.451Z,1012.23
2018-06-18T12:41:49.439Z,1012.18
2018-06-18T12:42:49.427Z,1012.20
2018-06-18T12:43:49.416Z,1012.20
2018-06-18T12:44:49.424Z,1012.19
2018-06-18T12:45:49.389Z,1012.22
2018-06-18T12:46:49.437Z,1012.21
2018-06-18T12:47:49.373Z,1012.23
2018-06-18T12:48:49.354Z,1012.22
2018-06-18T12:49:49.360Z,1012.24
2018-06-18T12:50:49.331Z,1012.30
2018-06-18T12:51:49.323Z,1012.26
2018-06-18T12:52:49.306Z,1012.26
2018-06-18T12:53:49.302Z,1012.37
2018-06-18T12:54:49.293Z,1012.30
2018-06-18T12:55:49.270Z,1012.28
2018-06-18T12:56:49.262Z,1012.29
2018-06-18T12:57:49.248Z,1012.26
2018-06-18T12:58:49.237Z,1012.27
2018-06-18T12:59:49.234Z,1012.26
2018-06-18T13:00:49.214Z,1012.29
2018-06-18T13:01:49.204Z,1012.25
2018-06-18T13:02:49.190Z,1012.30
2018-06-18T13:03:49.175Z,1012.28
2018-06-18T13:04:49.180Z,1012.27
2018-06-18T13:05:49.156Z,1012.26
2018-06-18T13:06:49.152Z,1012.29
2018-06-18T13:07:49.132Z,1012.24
2018-06-18T13:08:49.119Z,1012.25
2018-06-18T13:09:49.107Z,1012.27
2018-06-18T13:10:49.107Z,1012.30
2018-06-18T13:11:49.085Z,1012.34
2018-06-18T13:12:49.079Z,1012.31
2018-06-18T13:13:49.063Z,1012.27
2018-06-18T13:14:49.050Z,1012.31
2018-06-18T13:15:49.049Z,1012.28
2018-06-18T13:16:49.026Z,1012.29
2018-06-18T13:17:49.023Z,1012.27
2018-06-18T13:18:49.003Z,1012.28
2018-06-18T13:19:48.993Z,1012.31
2018-06-18T13:20:48.989Z,1012.36
2018-06-18T13:21:48.970Z,1012.34
2018-06-18T13:22:48.958Z,1012.37
2018-06-18T13:23:48.956Z,1012.41
2018-06-18T13:24:48.940Z,1012.41
2018-06-18T13:25:48.933Z,1012.37
2018-06-18T13:26:48.912Z,1012.45
2018-06-18T13:27:48.937Z,1012.46
2018-06-18T13:28:48.889Z,1012.46
2018-06-18T13:29:48.877Z,1012.46
2018-06-18T13:30:48.875Z,1012.49
2018-06-18T13:31:48.866Z,1012.49
2018-06-18T13:32:48.844Z,1012.53
2018-06-18T13:33:48.837Z,1012.50
2018-06-18T13:34:48.817Z,1012.45
2018-06-18T13:35:48.819Z,1012.50
2018-06-18T13:36:48.796Z,1012.46
2018-06-18T13:37:48.797Z,1012.49
2018-06-18T13:38:48.767Z,1012.51
2018-06-18T13:39:48.764Z,1012.54
2018-06-18T13:40:48.759Z,1012.51
2018-06-18T13:41:48.734Z,1012.49
2018-06-18T13:42:48.725Z,1012.47
2018-06-18T13:43:48.711Z,1012.47
2018-06-18T13:44:48.702Z,1012.47
2018-06-18T13:45:48.702Z,1012.48
2018-06-18T13:46:48.673Z,1012.49
2018-06-18T13:47:48.662Z,1012.47
2018-06-18T13:48:48.652Z,1012.49
2018-06-18T13:49:48.643Z,1012.50
2018-06-18T13:50:48.628Z,1012.51
2018-06-18T13:51:48.619Z,1012.49
2018-06-18T13:52:48.759Z,1012.52
2018-06-18T13:53:48.604Z,1012.52
2018-06-18T13:54:48.575Z,1012.51
2018-06-18T13:55:48.565Z,1012.46
2018-06-18T13:56:48.567Z,1012.49
2018-06-18T13:57:48.541Z,1012.49
2018-06-18T13:58:48.527Z,1012.51
2018-06-18T13:59:48.521Z,1012.53
2018-06-18T14:00:48.506Z,1012.55
2018-06-18T14:01:48.490Z,1012.54
2018-06-18T14:02:48.489Z,1012.57
2018-06-18T14:03:48.464Z,1012.62
2018-06-18T14:04:48.452Z,1012.63
2018-06-18T14:05:48.471Z,1012.66
2018-06-18T14:06:48.427Z,1012.64
2018-06-18T14:07:48.426Z,1012.64
2018-06-18T14:08:48.401Z,1012.63
2018-06-18T14:09:48.392Z,1012.64
2018-06-18T14:10:48.379Z,1012.70
2018-06-18T14:11:48.369Z,1012.68
2018-06-18T14:12:48.375Z,1012.71
2018-06-18T14:13:48.411Z,1012.77
2018-06-18T14:14:48.334Z,1012.77
2018-06-18T14:15:48.316Z,1012.76
2018-06-18T14:16:48.308Z,1012.77
2018-06-18T14:17:48.304Z,1012.83
2018-06-18T14:18:48.280Z,1012.85
2018-06-18T14:19:48.351Z,1013.14
2018-06-18T14:20:48.261Z,1012.79
2018-06-18T14:21:48.243Z,1012.72
2018-06-18T14:22:48.231Z,1012.70
2018-06-18T14:23:48.241Z,1012.68
2018-06-18T14:24:48.211Z,1012.69
2018-06-18T14:25:48.200Z,1012.62
2018-06-18T14:26:48.189Z,1012.61
2018-06-18T14:27:48.178Z,1012.61
2018-06-18T14:28:48.176Z,1012.59
2018-06-18T14:29:48.157Z,1012.54
2018-06-18T14:30:48.146Z,1012.54
2018-06-18T14:31:48.135Z,1012.54
2018-06-18T14:32:48.178Z,1012.57
2018-06-18T14:33:48.128Z,1012.55
2018-06-18T14:34:48.102Z,1012.54
2018-06-18T14:35:48.213Z,1012.53
2018-06-18T14:36:48.081Z,1012.52
2018-06-18T14:37:48.073Z,1012.52
2018-06-18T14:38:48.070Z,1012.55
2018-06-18T14:39:48.049Z,1012.51
2018-06-18T14:40:48.036Z,1012.49
2018-06-18T14:41:48.030Z,1012.52
2018-06-18T14:42:48.019Z,1012.49
2018-06-18T14:43:48.016Z,1012.48
2018-06-18T14:44:47.999Z,1012.53
2018-06-18T14:45:48.031Z,1012.55
2018-06-18T14:46:47.969Z,1012.51
2018-06-18T14:47:47.960Z,1012.48
2018-06-18T14:48:48.019Z,1012.47
2018-06-18T14:49:47.935Z,1012.42
2018-06-18T14:50:47.928Z,1012.42
2018-06-18T14:51:47.915Z,1012.38
2018-06-18T14:52:47.902Z,1012.37
2018-06-18T14:53:47.889Z,1012.36
2018-06-18T14:54:47.889Z,1012.35
2018-06-18T14:55:47.867Z,1012.35
2018-06-18T14:56:47.879Z,1012.36
2018-06-18T14:57:47.846Z,1012.37
2018-06-18T14:58:47.832Z,1012.35
2018-06-18T14:59:47.890Z,1012.33
2018-06-18T15:00:47.809Z,1012.34
2018-06-18T15:01:47.797Z,1012.32
2018-06-18T15:02:47.861Z,1012.31
2018-06-18T15:03:47.862Z,1012.31
2018-06-18T15:04:47.775Z,1012.28
2018-06-18T15:05:47.746Z,1012.30
2018-06-18T15:06:47.740Z,1012.32
2018-06-18T15:07:47.727Z,1012.34
2018-06-18T15:08:47.712Z,1012.33
2018-06-18T15:09:47.710Z,1012.35
2018-06-18T15:10:47.697Z,1012.34
2018-06-18T15:11:47.679Z,1012.37
2018-06-18T15:12:47.715Z,1012.39
2018-06-18T15:13:47.690Z,1012.36
2018-06-18T15:14:47.648Z,1012.36
2018-06-18T15:15:47.704Z,1012.34
2018-06-18T15:16:47.618Z,1012.36
2018-06-18T15:17:47.605Z,1012.32
2018-06-18T15:18:47.593Z,1012.27
2018-06-18T15:19:47.594Z,1012.28
2018-06-18T15:20:47.567Z,1012.30
2018-06-18T15:21:47.557Z,1012.29
2018-06-18T15:22:47.552Z,1012.30
2018-06-18T15:23:47.544Z,1012.31
2018-06-18T15:24:47.532Z,1012.30
2018-06-18T15:25:47.509Z,1012.29
2018-06-18T15:26:47.591Z,1012.28
2018-06-18T15:27:47.493Z,1012.28
2018-06-18T15:28:47.473Z,1012.26
2018-06-18T15:29:47.473Z,1012.26
2018-06-18T15:30:47.448Z,1012.25
2018-06-18T15:31:47.441Z,1012.24
2018-06-18T15:32:47.472Z,1012.24
2018-06-18T15:33:47.414Z,1012.22
2018-06-18T15:34:47.416Z,1012.20
2018-06-18T15:35:47.395Z,1012.20
2018-06-18T15:36:47.393Z,1012.24
2018-06-18T15:37:47.370Z,1012.17
2018-06-18T15:38:47.360Z,1012.21
2018-06-18T15:39:47.347Z,1012.21
2018-06-18T15:40:47.339Z,1012.21
2018-06-18T15:41:47.321Z,1012.19
2018-06-18T15:42:47.310Z,1012.18
2018-06-18T15:43:47.378Z,1012.15
2018-06-18T15:44:47.287Z,1012.11
2018-06-18T15:45:47.286Z,1012.08
2018-06-18T15:46:47.270Z,1012.10
2018-06-18T15:47:47.254Z,1012.13
2018-06-18T15:48:47.242Z,1012.15
2018-06-18T15:49:47.231Z,1012.19
2018-06-18T15:50:47.231Z,1012.18
2018-06-18T15:51:47.212Z,1012.17
2018-06-18T15:52:47.198Z,1012.20
2018-06-18T15:53:47.188Z,1012.17
2018-06-18T15:54:47.181Z,1012.20
2018-06-18T15:55:47.177Z,1012.15
2018-06-18T15:56:47.176Z,1012.26
2018-06-18T15:57:47.148Z,1012.21
2018-06-18T15:58:47.134Z,1012.34
2018-06-18T15:59:47.129Z,1012.47
2018-06-18T16:00:47.123Z,1012.24
2018-06-18T16:01:47.126Z,1012.18
2018-06-18T16:02:47.093Z,1012.15
2018-06-18T16:03:47.085Z,1012.07
2018-06-18T16:04:47.075Z,1012.08
2018-06-18T16:05:47.079Z,1012.38
2018-06-18T16:06:47.056Z,1012.51
2018-06-18T16:07:47.048Z,1012.14
2018-06-18T16:08:47.042Z,1012.31
2018-06-18T16:09:47.035Z,1012.41
2018-06-18T16:10:47.042Z,1012.35
2018-06-18T16:11:47.015Z,1012.16
2018-06-18T16:12:47.009Z,1012.08
2018-06-18T16:13:46.999Z,1012.34
2018-06-18T16:14:46.993Z,1012.05
2018-06-18T16:15:47.001Z,1011.97
2018-06-18T16:16:46.978Z,1011.97
2018-06-18T16:17:47.036Z,1011.98
2018-06-18T16:18:46.962Z,1012.01
2018-06-18T16:19:46.966Z,1012.07
2018-06-18T16:20:46.963Z,1012.41
2018-06-18T16:21:46.943Z,1012.22
2018-06-18T16:22:46.937Z,1012.05
2018-06-18T16:23:46.938Z,1012.11
2018-06-18T16:24:46.922Z,1012.09
2018-06-18T16:25:46.933Z,1012.36
2018-06-18T16:26:46.910Z,1012.30
2018-06-18T16:27:46.901Z,1011.94
2018-06-18T16:28:46.897Z,1012.18
2018-06-18T16:29:46.888Z,1011.91
2018-06-18T16:30:46.896Z,1011.88
2018-06-18T16:31:46.895Z,1011.94
2018-06-18T16:32:46.874Z,1011.89
2018-06-18T16:33:46.923Z,1011.95
2018-06-18T16:34:46.858Z,1012.28
2018-06-18T16:35:46.854Z,1011.96
2018-06-18T16:36:46.881Z,1011.88
2018-06-18T16:37:46.851Z,1011.83
2018-06-18T16:38:46.833Z,1011.82
2018-06-18T16:39:46.856Z,1011.76
2018-06-18T16:40:46.844Z,1011.75
2018-06-18T16:41:46.834Z,1011.81
2018-06-18T16:42:46.806Z,1011.81
2018-06-18T16:43:46.796Z,1011.86
2018-06-18T16:44:46.788Z,1011.83
2018-06-18T16:45:46.782Z,1011.85
2018-06-18T16:46:46.773Z,1011.83
2018-06-18T16:47:46.785Z,1011.84
2018-06-18T16:48:46.759Z,1011.92
2018-06-18T16:49:46.750Z,1011.92
2018-06-18T16:50:46.743Z,1011.83
2018-06-18T16:51:46.748Z,1011.89
2018-06-18T16:52:46.726Z,1011.88
2018-06-18T16:53:46.719Z,1011.88
2018-06-18T16:54:46.720Z,1012.29
2018-06-18T16:55:46.704Z,1012.25
2018-06-18T16:56:46.692Z,1011.79
2018-06-18T16:57:46.698Z,1011.79
2018-06-18T16:58:46.679Z,1011.75
2018-06-18T16:59:46.672Z,1011.72
2018-06-18T17:00:46.668Z,1011.72
2018-06-18T17:01:46.649Z,1011.77
2018-06-18T17:02:46.681Z,1011.80
2018-06-18T17:03:46.634Z,1011.77
2018-06-18T17:04:46.630Z,1011.72
2018-06-18T17:05:46.621Z,1011.70
2018-06-18T17:06:46.609Z,1011.97
2018-06-18T17:07:46.615Z,1011.75
2018-06-18T17:08:46.595Z,1011.71
2018-06-18T17:09:46.581Z,1011.67
2018-06-18T17:10:46.579Z,1011.64
2018-06-18T17:11:46.575Z,1011.77
2018-06-18T17:12:46.571Z,1012.01
2018-06-18T17:13:46.554Z,1011.71
2018-06-18T17:14:46.545Z,1012.00
2018-06-18T17:15:46.535Z,1012.05
2018-06-18T17:16:46.526Z,1012.06
2018-06-18T17:17:46.535Z,1012.10
2018-06-18T17:18:46.511Z,1012.16
2018-06-18T17:19:46.512Z,1012.12
2018-06-18T17:20:46.503Z,1012.05
2018-06-18T17:21:46.493Z,1012.13
2018-06-18T17:22:46.497Z,1012.09
2018-06-18T17:23:46.476Z,1011.90
2018-06-18T17:24:46.476Z,1011.87
2018-06-18T17:25:46.466Z,1012.09
2018-06-18T17:26:46.454Z,1012.13
2018-06-18T17:27:46.477Z,1012.17
2018-06-18T17:28:46.532Z,1012.19
2018-06-18T17:29:46.446Z,1012.14
2018-06-18T17:30:46.440Z,1011.84
2018-06-18T17:31:46.478Z,1011.98
2018-06-18T17:32:46.453Z,1011.84
2018-06-18T17:33:46.447Z,1011.79
2018-06-18T17:34:46.422Z,1011.83
2018-06-18T17:35:46.418Z,1011.95
2018-06-18T17:36:46.413Z,1012.18
2018-06-18T17:37:46.436Z,1011.84
2018-06-18T17:38:46.403Z,1011.73
2018-06-18T17:39:46.398Z,1011.74
2018-06-18T17:40:46.391Z,1011.69
2018-06-18T17:41:46.399Z,1011.69
2018-06-18T17:42:46.392Z,1011.79
2018-06-18T17:43:46.375Z,1011.80
2018-06-18T17:44:46.373Z,1011.79
2018-06-18T17:45:46.359Z,1011.77
2018-06-18T17:46:46.352Z,1011.84
2018-06-18T17:47:46.363Z,1011.83
2018-06-18T17:48:46.341Z,1011.86
2018-06-18T17:49:46.380Z,1011.76
2018-06-18T17:50:46.325Z,1011.76
2018-06-18T17:51:46.315Z,1011.69
2018-06-18T17:52:46.327Z,1011.72
2018-06-18T17:53:46.340Z,1011.74
2018-06-18T17:54:46.295Z,1011.78
2018-06-18T17:55:46.284Z,1011.81
2018-06-18T17:56:46.273Z,1011.77
2018-06-18T17:57:46.277Z,1011.80
2018-06-18T17:58:46.255Z,1011.69
2018-06-18T17:59:46.247Z,1011.68
2018-06-18T18:00:46.238Z,1011.65
2018-06-18T18:01:46.230Z,1011.60
2018-06-18T18:02:46.253Z,1011.65
2018-06-18T18:03:46.210Z,1011.64
2018-06-18T18:04:46.200Z,1011.65
2018-06-18T18:05:46.201Z,1011.59
2018-06-18T18:06:46.180Z,1011.60
2018-06-18T18:07:46.196Z,1011.57
2018-06-18T18:08:46.164Z,1011.56
2018-06-18T18:09:46.152Z,1011.58
2018-06-18T18:10:46.145Z,1011.55
2018-06-18T18:11:46.135Z,1011.58
2018-06-18T18:12:46.194Z,1011.57
2018-06-18T18:13:46.159Z,1011.56
2018-06-18T18:14:46.104Z,1011.54
2018-06-18T18:15:46.092Z,1011.51
2018-06-18T18:16:46.083Z,1011.49
2018-06-18T18:17:46.087Z,1011.46
2018-06-18T18:18:46.066Z,1011.49
2018-06-18T18:19:46.057Z,1011.48
2018-06-18T18:20:46.038Z,1011.48
2018-06-18T18:21:46.031Z,1011.48
2018-06-18T18:22:46.034Z,1011.51
2018-06-18T18:23:46.009Z,1011.49
2018-06-18T18:24:45.993Z,1011.58
2018-06-18T18:25:45.986Z,1011.56
2018-06-18T18:26:45.977Z,1011.55
2018-06-18T18:27:46.106Z,1011.56
2018-06-18T18:28:45.976Z,1011.59
2018-06-18T18:29:45.967Z,1011.60
2018-06-18T18:30:45.937Z,1011.62
2018-06-18T18:31:45.926Z,1011.61
2018-06-18T18:32:45.924Z,1011.63
2018-06-18T18:33:45.914Z,1011.58
2018-06-18T18:34:45.899Z,1011.59
2018-06-18T18:35:45.876Z,1011.57
2018-06-18T18:36:45.863Z,1011.52
2018-06-18T18:37:45.864Z,1011.53
2018-06-18T18:38:45.840Z,1011.55
2018-06-18T18:39:45.829Z,1011.56
2018-06-18T18:40:45.819Z,1011.55
2018-06-18T18:41:45.811Z,1011.56
2018-06-18T18:42:45.806Z,1011.57
2018-06-18T18:43:45.786Z,1011.57
2018-06-18T18:44:45.772Z,1011.62
2018-06-18T18:45:45.764Z,1011.58
2018-06-18T18:46:45.752Z,1011.62
2018-06-18T18:47:45.750Z,1011.58
2018-06-18T18:48:45.728Z,1011.57
2018-06-18T18:49:45.716Z,1011.57
2018-06-18T18:50:45.700Z,1011.58
2018-06-18T18:51:45.697Z,1011.55
2018-06-18T18:52:45.695Z,1011.63
2018-06-18T18:53:45.675Z,1011.64
2018-06-18T18:54:45.652Z,1011.68
2018-06-18T18:55:45.637Z,1011.70
2018-06-18T18:56:45.633Z,1011.66
2018-06-18T18:57:45.632Z,1011.64
2018-06-18T18:58:45.610Z,1011.59
2018-06-18T18:59:45.591Z,1011.54
2018-06-18T19:00:45.580Z,1011.56
2018-06-18T19:01:45.568Z,1011.56
2018-06-18T19:02:45.557Z,1011.59
2018-06-18T19:03:45.566Z,1011.59
2018-06-18T19:04:45.536Z,1011.57
2018-06-18T19:05:45.519Z,1011.58
2018-06-18T19:06:45.504Z,1011.62
2018-06-18T19:07:45.497Z,1011.67
2018-06-18T19:08:45.482Z,1011.67
2018-06-18T19:09:45.538Z,1011.65
2018-06-18T19:10:45.458Z,1011.61
2018-06-18T19:11:45.458Z,1011.59
2018-06-18T19:12:45.432Z,1011.57
2018-06-18T19:13:45.421Z,1011.54
2018-06-18T19:14:45.422Z,1011.58
2018-06-18T19:15:45.398Z,1011.50
2018-06-18T19:16:45.394Z,1011.51
2018-06-18T19:17:45.383Z,1011.55
2018-06-18T19:18:45.364Z,1011.57
2018-06-18T19:19:45.360Z,1011.58
2018-06-18T19:20:45.335Z,1011.60
2018-06-18T19:21:45.368Z,1011.59
2018-06-18T19:22:45.327Z,1011.59
2018-06-18T19:23:45.303Z,1011.65
2018-06-18T19:24:45.294Z,1011.65
2018-06-18T19:25:45.283Z,1011.67
2018-06-18T19:26:45.258Z,1011.73
2018-06-18T19:27:45.256Z,1011.68
2018-06-18T19:28:45.235Z,1011.69
2018-06-18T19:29:45.249Z,1011.68
2018-06-18T19:30:45.225Z,1011.67
2018-06-18T19:31:45.200Z,1011.67
2018-06-18T19:32:45.191Z,1011.73
2018-06-18T19:33:45.180Z,1011.70
2018-06-18T19:34:45.176Z,1011.72
2018-06-18T19:35:45.147Z,1011.73
2018-06-18T19:36:45.248Z,1011.74
2018-06-18T19:37:45.122Z,1011.72
2018-06-18T19:38:45.109Z,1011.69
2018-06-18T19:39:45.113Z,1011.70
2018-06-18T19:40:45.084Z,1011.68
2018-06-18T19:41:45.068Z,1011.64
2018-06-18T19:42:45.062Z,1011.69
2018-06-18T19:43:45.046Z,1011.68
2018-06-18T19:44:45.046Z,1011.68
2018-06-18T19:45:45.023Z,1011.69
2018-06-18T19:46:45.004Z,1011.64
2018-06-18T19:47:44.993Z,1011.63
2018-06-18T19:48:44.980Z,1011.66
2018-06-18T19:49:44.986Z,1011.66
2018-06-18T19:50:45.007Z,1011.70
2018-06-18T19:51:44.943Z,1011.69
2018-06-18T19:52:44.931Z,1011.70
2018-06-18T19:53:44.914Z,1011.73
2018-06-18T19:54:44.906Z,1011.71
2018-06-18T19:55:44.903Z,1011.72
2018-06-18T19:56:44.881Z,1011.74
2018-06-18T19:57:44.866Z,1011.72
2018-06-18T19:58:44.851Z,1011.73
2018-06-18T19:59:44.840Z,1011.74
2018-06-18T20:00:44.836Z,1011.80
2018-06-18T20:01:44.883Z,1011.77
2018-06-18T20:02:44.802Z,1011.76
2018-06-18T20:03:44.787Z,1011.75
2018-06-18T20:04:44.784Z,1011.79
2018-06-18T20:05:44.785Z,1011.80
2018-06-18T20:06:44.748Z,1011.80
2018-06-18T20:07:44.742Z,1011.83
2018-06-18T20:08:44.730Z,1011.86
2018-06-18T20:09:44.706Z,1011.85
2018-06-18T20:10:44.704Z,1011.84
2018-06-18T20:11:44.684Z,1011.85
2018-06-18T20:12:44.672Z,1011.82
2018-06-18T20:13:44.654Z,1011.79
2018-06-18T20:14:44.641Z,1011.84
2018-06-18T20:15:44.637Z,1011.85
2018-06-18T20:16:44.623Z,1011.88
2018-06-18T20:17:44.615Z,1011.87
2018-06-18T20:18:44.588Z,1011.89
2018-06-18T20:19:44.578Z,1011.86
2018-06-18T20:20:44.570Z,1011.88
2018-06-18T20:21:44.551Z,1011.83
2018-06-18T20:22:44.533Z,1011.84
2018-06-18T20:23:44.521Z,1011.84
2018-06-18T20:24:44.511Z,1011.87
2018-06-18T20:25:44.580Z,1011.89
2018-06-18T20:26:44.481Z,1011.91
2018-06-18T20:27:44.493Z,1011.95
2018-06-18T20:28:44.451Z,1011.93
2018-06-18T20:29:44.448Z,1011.93
2018-06-18T20:30:44.439Z,1011.92
2018-06-18T20:31:44.412Z,1011.93
2018-06-18T20:32:44.404Z,1011.95
2018-06-18T20:33:44.385Z,1012.01
2018-06-18T20:34:44.374Z,1012.01
2018-06-18T20:35:44.372Z,1012.02
2018-06-18T20:36:44.348Z,1012.05
2018-06-18T20:37:44.362Z,1012.07
2018-06-18T20:38:44.318Z,1012.05
2018-06-18T20:39:44.305Z,1012.05
2018-06-18T20:40:44.312Z,1012.06
2018-06-18T20:41:44.283Z,1012.11
2018-06-18T20:42:44.266Z,1012.13
2018-06-18T20:43:44.254Z,1012.13
2018-06-18T20:44:44.237Z,1012.16
2018-06-18T20:45:44.234Z,1012.14
2018-06-18T20:46:44.211Z,1012.18
2018-06-18T20:47:44.197Z,1012.14
2018-06-18T20:48:44.181Z,1012.14
2018-06-18T20:49:44.179Z,1012.16
2018-06-18T20:50:44.232Z,1012.17
2018-06-18T20:51:44.142Z,1012.20
2018-06-18T20:52:44.128Z,1012.22
2018-06-18T20:53:44.119Z,1012.25
2018-06-18T20:54:44.102Z,1012.26
2018-06-18T20:55:44.655Z,1012.26
2018-06-18T20:56:44.075Z,1012.29
2018-06-18T20:57:44.069Z,1012.30
2018-06-18T20:58:44.049Z,1012.28
2018-06-18T20:59:44.034Z,1012.29
2018-06-18T21:00:44.034Z,1012.32
2018-06-18T21:01:44.012Z,1012.33
2018-06-18T21:02:44.069Z,1012.32
2018-06-18T21:03:43.992Z,1012.29
2018-06-18T21:04:43.965Z,1012.30
2018-06-18T21:05:43.965Z,1012.31
2018-06-18T21:06:43.961Z,1012.41
2018-06-18T21:07:43.979Z,1012.42
2018-06-18T21:08:43.914Z,1012.44
2018-06-18T21:09:43.898Z,1012.45
2018-06-18T21:10:43.901Z,1012.38
2018-06-18T21:11:43.869Z,1012.40
2018-06-18T21:12:43.855Z,1012.37
2018-06-18T21:13:43.845Z,1012.41
2018-06-18T21:14:43.830Z,1012.43
2018-06-18T21:15:43.826Z,1012.47
2018-06-18T21:16:43.802Z,1012.51
2018-06-18T21:17:43.787Z,1012.54
2018-06-18T21:18:43.775Z,1012.55